Onweer radar Meer informatie blitzortung!


Regen radar Meer informatie rain snow radar


Andere websites:

Template documentation
and downloads

And another site

Weather-Template Info-Forum

Webcam-Havenmond

Webcam-Havenkantoor

Webcam-Werkhaven

Webcam-Westhaven



Het weer levert geen direct gevaar op.    Er zijn geen waarschuwingen afgegeven.

METAR rapporten vliegvelden

   
EBAW - Antwerp
Gewijzigd: 21-05-2018 16:20
Licht bewolkt  
Licht bewolkt  
   Wind: ZO 13 km/h
Wind: ZO 13 km/h
Temperatuur: 25°C
Dauwpunt: 11°C
Vochtigheid: 42%
Barometer: 1012 hPa
Bewolking: Licht bewolkt
Zicht: meer dan 10 km
Bewolking: Licht bewolkt 5000 ft
EBAW 211420Z 13007KT 090V160 9999 FEW050TCU 25/11 Q1012 NOSIG
EBLG - Li├Ęge
Gewijzigd: 21-05-2018 16:20
Licht bewolkt  
Licht bewolkt  
   Wind: ZO 7.4 km/h
Wind: ZO 7.4 km/h
Temperatuur: 23°C
Dauwpunt: 11°C
Vochtigheid: 47%
Barometer: 1012 hPa
Bewolking: Licht bewolkt
Zicht: meer dan 10 km
Bewolking: Licht bewolkt 4300 ft
EBLG 211420Z 14004KT 100V180 9999 FEW043 23/11 Q1012 NOSIG
EBCV - Mons/Bergen
Gewijzigd: 21-05-2018 16:25
Licht bewolkt  
Licht bewolkt  
   Wind: Oosten 5.6 km/h
Wind: Oosten 5.6 km/h
Temperatuur: 22°C
Dauwpunt: 12°C
Vochtigheid: 53%
Barometer: 1012 hPa
Bewolking: Licht bewolkt
Zicht: meer dan 10 km
Bewolking: Licht bewolkt 8000 ft
EBCV 211425Z AUTO 10003KT 9999 FEW080/// 22/12 Q1012 BLU
EHBK - Maastricht
Gewijzigd: 21-05-2018 16:25
Gedeeltelijk bewolkt  
Gedeeltelijk bewolkt  
   Wind: Oosten 20.4 km/h
Wind: Oosten 20.4 km/h
Temperatuur: 25°C
Dauwpunt: 11°C
Vochtigheid: 42%
Barometer: 1012 hPa
Bewolking: Gedeeltelijk bewolkt
Zicht: meer dan 10 km
Bewolking: Gedeeltelijk bewolkt
EHBK 211425Z AUTO 10011KT 060V140 9999 NSC 25/11 Q1012 TEMPO 6000 SHRA SCT050CB
ELLX - Luxemburg
Gewijzigd: 21-05-2018 16:20
Gedeeltelijk bewolkt  
Gedeeltelijk bewolkt  
   Wind: varieert 9.3 km/h
Wind: varieert 9.3 km/h
Temperatuur: 22°C
Dauwpunt: 10°C
Vochtigheid: 47%
Barometer: 1013 hPa
Bewolking: Gedeeltelijk bewolkt
Zicht: meer dan 10 km
Bewolking: Gedeeltelijk bewolkt 4000 ft
ELLX 211420Z VRB05KT 9999 SCT040 22/10 Q1013 NOSIG
EBOS - Oostende
Gewijzigd: 21-05-2018 16:20
Licht bewolkt  
Licht bewolkt  
   Wind: Noorden 20.4 km/h
Wind: Noorden 20.4 km/h
Temperatuur: 17°C
Dauwpunt: 10°C
Vochtigheid: 64%
Barometer: 1013 hPa
Bewolking: Licht bewolkt
Zicht: meer dan 10 km
Bewolking: Licht bewolkt 3500 ft
EBOS 211420Z 01011KT 9999 FEW035 17/10 Q1013 NOSIG

Script ontwikkeld door  Saratoga-weather.org Aangepast voor de template door  Weerstation Leuven

U vindt ons ook hier:

Het Weer Aktueel

European Weather Network

WeatherCloud

Weather Underground

Benelux Weer Netwerk

AWEKAS

Apparatuur in gebruik:

Weerstation
Davis VP2

Weerprogramma
Meteohub

Weercomputer
My Computer

Webleverancier
My provider

Davis VP2

Meteohub

My Computer

My provider